Time;durP1;ratioP1;P1;durP2;ratioP2;P2;SDS_P1;SDS_P2;PMS_P1;PMS_P2;Temp;Humidity;BMP_temperature;BMP_pressure;BME280_temperature;BME280_humidity;BME280_pressure;Samples;Min_cycle;Max_cycle;Signal;HPM_P1;HPM_P2
2022/05/27 00:01:33;;;;;;;3.73;3.43;;;15.90;88.40;;;;;;5077384;28;20518;-47
2022/05/27 00:04:02;;;;;;;3.73;3.33;;;15.90;88.30;;;;;;5076771;28;20201;-45
2022/05/27 00:06:29;;;;;;;4.17;3.67;;;15.90;88.70;;;;;;5075542;28;20412;-46
2022/05/27 00:08:56;;;;;;;2.40;2.20;;;15.80;88.90;;;;;;5074974;28;20468;-46
2022/05/27 00:11:24;;;;;;;3.20;2.50;;;15.80;89.20;;;;;;5076994;28;20742;-46
2022/05/27 00:13:51;;;;;;;2.30;1.90;;;15.70;89.20;;;;;;5076203;28;20417;-45
2022/05/27 00:16:16;;;;;;;2.40;2.00;;;15.70;89.00;;;;;;5056771;28;21043;-46
2022/05/27 00:18:42;;;;;;;3.07;1.80;;;15.70;89.00;;;;;;5076759;28;20497;-45
2022/05/27 00:21:09;;;;;;;2.50;1.83;;;15.60;89.70;;;;;;5077365;28;20204;-46
2022/05/27 00:23:37;;;;;;;2.10;1.90;;;15.60;89.80;;;;;;5077765;28;20516;-45
2022/05/27 00:26:03;;;;;;;1.63;1.50;;;15.60;89.40;;;;;;5078015;28;20525;-45
2022/05/27 00:28:29;;;;;;;2.63;1.80;;;15.50;90.00;;;;;;5042964;28;20432;-45
2022/05/27 00:30:54;;;;;;;4.10;2.07;;;15.50;90.10;;;;;;5077425;28;20578;-45
2022/05/27 00:33:20;;;;;;;1.83;1.63;;;15.50;90.20;;;;;;5077310;28;20185;-47
2022/05/27 00:35:46;;;;;;;2.27;1.43;;;15.50;90.00;;;;;;5077842;28;20239;-45
2022/05/27 00:38:12;;;;;;;2.80;1.77;;;15.50;90.10;;;;;;5059218;28;20435;-46
2022/05/27 00:40:47;;;;;;;2.70;1.60;;;15.50;90.10;;;;;;5076281;28;20193;-46
2022/05/27 00:43:14;;;;;;;3.80;1.87;;;15.50;90.20;;;;;;5075837;28;20185;-45
2022/05/27 00:45:42;;;;;;;1.70;1.30;;;15.50;90.10;;;;;;5058422;28;20427;-46
2022/05/27 00:48:13;;;;;;;1.83;1.40;;;15.50;90.10;;;;;;5041364;28;20467;-48
2022/05/27 00:50:41;;;;;;;2.13;1.73;;;15.50;90.10;;;;;;5057092;28;20565;-46
2022/05/27 00:53:08;;;;;;;3.70;2.00;;;15.50;90.10;;;;;;5059902;28;20428;-45
2022/05/27 00:55:37;;;;;;;2.00;1.60;;;15.50;90.00;;;;;;5059011;28;20823;-46
2022/05/27 00:58:10;;;;;;;1.90;1.57;;;15.40;90.10;;;;;;5077167;28;20432;-46
2022/05/27 01:00:36;;;;;;;2.50;2.17;;;15.40;90.20;;;;;;5069377;28;20437;-46
2022/05/27 01:03:03;;;;;;;2.27;1.83;;;15.30;90.40;;;;;;5096486;28;20720;-45
2022/05/27 01:05:29;;;;;;;1.77;1.57;;;15.30;90.50;;;;;;5079807;28;20422;-55
2022/05/27 01:08:03;;;;;;;2.23;1.73;;;15.30;90.50;;;;;;5097708;28;20492;-45
2022/05/27 01:11:01;;;;;;;2.63;1.90;;;15.20;90.60;;;;;;5097240;28;20463;-46
2022/05/27 01:13:51;;;;;;;2.63;1.73;;;15.20;90.70;;;;;;5025344;28;20475;-45
2022/05/27 01:16:57;;;;;;;1.80;1.70;;;15.20;90.80;;;;;;5097183;28;20798;-46
2022/05/27 01:23:01;;;;;;;5.50;1.80;;;15.10;91.00;;;;;;5095728;28;20476;-45
2022/05/27 01:25:27;;;;;;;2.60;2.00;;;15.10;91.10;;;;;;5095601;28;20493;-46
2022/05/27 01:31:40;;;;;;;1.70;1.53;;;15.00;91.10;;;;;;5097149;28;20539;-46
2022/05/27 01:34:33;;;;;;;2.40;1.50;;;15.00;91.10;;;;;;5079624;28;20570;-46
2022/05/27 01:37:07;;;;;;;2.10;1.90;;;15.00;91.20;;;;;;5097229;28;20399;-46
2022/05/27 01:39:45;;;;;;;2.57;2.13;;;15.00;91.20;;;;;;5097526;28;20832;-46
2022/05/27 01:42:14;;;;;;;2.83;2.00;;;15.00;91.10;;;;;;5097680;28;20435;-46
2022/05/27 01:45:04;;;;;;;2.80;2.20;;;14.90;91.10;;;;;;5100704;28;20830;-46
2022/05/27 01:47:33;;;;;;;2.23;2.00;;;14.90;91.30;;;;;;5101216;28;20415;-46
2022/05/27 01:50:23;;;;;;;1.87;1.43;;;14.90;91.40;;;;;;5101304;28;20477;-45
2022/05/27 01:53:05;;;;;;;2.83;1.67;;;14.90;91.50;;;;;;5083575;28;20418;-46
2022/05/27 01:55:49;;;;;;;3.80;2.10;;;14.90;91.50;;;;;;5083110;28;20645;-46
2022/05/27 01:58:26;;;;;;;2.37;1.77;;;14.90;91.50;;;;;;5065838;28;20426;-45
2022/05/27 02:00:51;;;;;;;2.37;2.10;;;14.90;91.40;;;;;;5082999;28;20463;-46
2022/05/27 02:03:25;;;;;;;2.27;1.73;;;14.90;91.40;;;;;;5100838;28;20461;-46
2022/05/27 02:06:18;;;;;;;3.87;2.27;;;14.90;91.30;;;;;;5100651;28;20448;-45
2022/05/27 02:09:10;;;;;;;2.20;1.70;;;14.80;91.30;;;;;;5053605;28;20828;-46
2022/05/27 02:11:38;;;;;;;4.37;2.43;;;14.80;91.40;;;;;;5101088;28;20711;-46
2022/05/27 02:14:11;;;;;;;2.20;1.80;;;14.80;91.50;;;;;;5082552;28;20475;-46
2022/05/27 02:16:44;;;;;;;3.37;1.90;;;14.70;91.60;;;;;;5082713;28;20423;-46
2022/05/27 02:19:31;;;;;;;2.27;1.80;;;14.70;91.70;;;;;;5100747;28;20433;-46
2022/05/27 02:22:07;;;;;;;2.20;1.70;;;14.70;91.90;;;;;;5082924;28;20708;-45
2022/05/27 02:24:38;;;;;;;4.00;1.77;;;14.70;92.00;;;;;;5082438;28;20431;-46
2022/05/27 02:27:16;;;;;;;4.00;2.30;;;14.70;91.90;;;;;;5065362;28;20516;-46
2022/05/27 02:29:43;;;;;;;2.67;2.23;;;14.70;91.70;;;;;;5080588;28;20486;-46
2022/05/27 02:32:31;;;;;;;3.10;1.83;;;14.70;91.80;;;;;;5080498;28;20493;-46
2022/05/27 02:35:08;;;;;;;2.53;1.90;;;14.60;91.90;;;;;;5080068;28;20475;-46
2022/05/27 02:37:41;;;;;;;2.80;2.60;;;14.60;92.00;;;;;;5097791;28;20404;-46
2022/05/27 02:40:19;;;;;;;4.17;2.03;;;14.60;92.10;;;;;;5098155;28;20429;-46
2022/05/27 02:43:00;;;;;;;2.13;1.93;;;14.60;92.00;;;;;;5080671;28;20708;-45
2022/05/27 02:45:35;;;;;;;2.73;2.10;;;14.60;92.00;;;;;;5099830;28;20821;-46
2022/05/27 02:48:05;;;;;;;2.07;1.97;;;14.60;91.80;;;;;;5099970;28;20437;-46
2022/05/27 02:50:46;;;;;;;2.00;1.80;;;14.50;91.90;;;;;;5082036;28;20490;-45
2022/05/27 02:53:28;;;;;;;2.10;1.80;;;14.40;92.10;;;;;;5099879;28;20764;-46
2022/05/27 02:56:00;;;;;;;2.50;1.93;;;14.40;92.60;;;;;;5064402;28;20434;-46
2022/05/27 02:58:28;;;;;;;3.13;1.80;;;14.30;92.60;;;;;;5099093;28;20469;-46
2022/05/27 03:00:54;;;;;;;2.03;1.83;;;14.40;92.60;;;;;;5086368;28;20437;-46
2022/05/27 03:03:20;;;;;;;2.00;1.60;;;14.30;92.50;;;;;;5098780;28;20458;-46
2022/05/27 03:06:31;;;;;;;3.00;1.60;;;14.30;92.70;;;;;;5099530;28;20412;-46
2022/05/27 03:09:42;;;;;;;2.40;1.60;;;14.30;92.70;;;;;;5090151;28;20665;-46
2022/05/27 03:12:39;;;;;;;1.70;1.60;;;14.30;92.60;;;;;;5083437;28;20509;-46
2022/05/27 03:15:18;;;;;;;2.23;2.03;;;14.40;92.70;;;;;;5099484;28;20415;-45
2022/05/27 03:17:43;;;;;;;2.17;1.90;;;14.40;92.70;;;;;;5099438;28;20747;-46
2022/05/27 03:20:34;;;;;;;2.10;1.90;;;14.40;92.60;;;;;;5097505;28;20433;-46
2022/05/27 03:23:25;;;;;;;2.13;1.57;;;14.40;92.50;;;;;;5099312;28;20195;-45
2022/05/27 03:25:54;;;;;;;2.80;2.57;;;14.40;92.30;;;;;;5098486;28;20481;-46
2022/05/27 03:28:38;;;;;;;2.33;2.00;;;14.40;92.50;;;;;;5099179;28;20434;-45
2022/05/27 03:31:41;;;;;;;2.37;2.17;;;14.30;92.70;;;;;;5081424;28;20481;-46
2022/05/27 03:34:54;;;;;;;2.50;2.00;;;14.30;92.80;;;;;;5065114;28;20557;-45
2022/05/27 03:37:45;;;;;;;2.67;2.00;;;14.30;92.90;;;;;;5096050;28;20514;-45
2022/05/27 03:40:15;;;;;;;3.03;2.30;;;14.30;92.70;;;;;;5085712;28;20465;-46
2022/05/27 03:42:41;;;;;;;2.17;1.60;;;14.30;92.70;;;;;;5097364;28;20783;-45
2022/05/27 03:45:11;;;;;;;3.37;1.73;;;14.40;92.70;;;;;;5097639;28;20424;-46
2022/05/27 03:47:37;;;;;;;4.53;2.03;;;14.40;92.70;;;;;;5097396;28;20423;-45
2022/05/27 03:50:04;;;;;;;2.33;1.70;;;14.40;92.70;;;;;;5097768;28;20467;-46
2022/05/27 03:52:36;;;;;;;2.20;1.83;;;14.50;92.70;;;;;;5079499;28;20411;-46
2022/05/27 03:55:01;;;;;;;2.83;2.20;;;14.50;92.60;;;;;;5080015;28;20454;-45
2022/05/27 03:57:27;;;;;;;2.20;2.00;;;14.60;92.60;;;;;;5097314;28;20408;-45
2022/05/27 03:59:53;;;;;;;2.20;2.00;;;14.60;92.50;;;;;;5096192;28;20565;-45
2022/05/27 04:02:18;;;;;;;3.60;2.40;;;14.60;92.60;;;;;;5095802;28;20188;-45
2022/05/27 04:04:44;;;;;;;2.37;2.00;;;14.70;92.40;;;;;;5096161;28;20189;-45
2022/05/27 04:07:10;;;;;;;3.23;2.10;;;14.70;92.70;;;;;;5095511;28;20327;-45
2022/05/27 04:09:36;;;;;;;2.23;2.03;;;14.70;92.70;;;;;;5094744;28;20475;-46
2022/05/27 04:12:03;;;;;;;2.30;2.10;;;14.80;92.60;;;;;;5094941;28;20553;-47
2022/05/27 04:14:31;;;;;;;3.30;2.20;;;14.80;92.50;;;;;;5095515;28;20505;-47
2022/05/27 04:19:42;;;;;;;2.37;2.17;;;15.00;92.20;;;;;;5094358;28;20434;-46
2022/05/27 04:22:07;;;;;;;2.80;2.13;;;15.10;92.20;;;;;;5093682;28;20425;-45
2022/05/27 04:24:33;;;;;;;2.70;2.20;;;15.20;92.10;;;;;;5093797;28;20183;-45
2022/05/27 04:26:59;;;;;;;2.70;2.00;;;15.20;91.90;;;;;;5094615;28;20273;-46
2022/05/27 04:29:25;;;;;;;2.90;2.37;;;15.30;91.80;;;;;;5094373;28;20744;-46
2022/05/27 04:31:50;;;;;;;3.47;2.70;;;15.50;91.50;;;;;;5094964;28;20411;-46
2022/05/27 04:34:16;;;;;;;2.53;2.27;;;15.50;91.40;;;;;;5096475;28;20228;-46
2022/05/27 04:36:41;;;;;;;6.40;2.30;;;15.50;91.50;;;;;;5097416;28;20529;-46
2022/05/27 04:39:07;;;;;;;3.00;2.43;;;15.50;91.40;;;;;;5096464;28;20177;-45
2022/05/27 04:41:33;;;;;;;3.70;2.17;;;15.40;91.40;;;;;;5096918;28;20187;-46
2022/05/27 04:43:58;;;;;;;2.53;2.30;;;15.40;91.70;;;;;;5096603;28;20181;-46
2022/05/27 04:46:24;;;;;;;2.40;2.20;;;15.50;91.50;;;;;;5096493;28;20200;-45
2022/05/27 04:48:50;;;;;;;4.53;2.20;;;15.50;91.50;;;;;;5096449;28;20207;-45
2022/05/27 04:51:17;;;;;;;3.27;2.07;;;15.60;91.50;;;;;;5078987;28;20212;-46
2022/05/27 04:53:42;;;;;;;2.10;1.90;;;15.60;91.40;;;;;;5078355;28;20206;-46
2022/05/27 04:56:09;;;;;;;3.13;2.30;;;15.70;91.30;;;;;;5095514;28;20894;-46
2022/05/27 04:58:35;;;;;;;3.10;2.10;;;15.80;91.10;;;;;;5095834;28;20360;-46
2022/05/27 05:01:02;;;;;;;2.30;1.90;;;16.00;90.80;;;;;;5077818;28;20517;-46
2022/05/27 05:03:28;;;;;;;2.90;2.27;;;16.10;90.60;;;;;;5096028;28;20500;-46
2022/05/27 05:05:54;;;;;;;3.10;2.10;;;16.30;90.20;;;;;;5096810;28;20419;-46
2022/05/27 05:08:36;;;;;;;4.23;2.30;;;16.40;90.20;;;;;;5092914;28;20694;-46
2022/05/27 05:11:03;;;;;;;3.50;2.33;;;16.40;89.80;;;;;;5073759;28;20212;-46
2022/05/27 05:13:33;;;;;;;5.13;1.80;;;16.40;90.00;;;;;;5091965;28;20496;-46
2022/05/27 05:15:59;;;;;;;4.50;2.20;;;16.40;89.80;;;;;;5092089;28;20416;-46
2022/05/27 05:18:25;;;;;;;2.20;2.00;;;16.40;90.10;;;;;;5094059;28;20433;-46
2022/05/27 05:20:51;;;;;;;3.93;2.93;;;16.40;90.00;;;;;;5098090;28;20482;-45
2022/05/27 05:23:17;;;;;;;2.53;2.07;;;16.40;90.10;;;;;;5100314;28;20434;-46
2022/05/27 05:25:42;;;;;;;2.00;1.83;;;16.50;90.30;;;;;;5100122;28;20470;-46
2022/05/27 05:28:08;;;;;;;3.60;2.30;;;16.50;90.20;;;;;;5082085;28;20616;-46
2022/05/27 05:30:35;;;;;;;5.10;3.20;;;16.60;90.10;;;;;;5082913;28;20209;-46
2022/05/27 05:33:00;;;;;;;3.13;2.40;;;16.70;90.10;;;;;;5100817;28;20460;-46
2022/05/27 05:35:26;;;;;;;3.50;2.73;;;16.80;90.00;;;;;;5100718;28;20792;-45
2022/05/27 05:37:52;;;;;;;3.00;2.70;;;16.70;90.00;;;;;;5100521;28;20431;-46
2022/05/27 05:40:18;;;;;;;3.23;2.50;;;16.80;90.00;;;;;;5082243;28;20193;-46
2022/05/27 05:42:46;;;;;;;3.50;2.73;;;16.80;90.10;;;;;;5100635;28;20182;-46
2022/05/27 05:45:15;;;;;;;2.13;1.93;;;16.80;90.20;;;;;;5081896;28;20505;-46
2022/05/27 05:47:41;;;;;;;2.53;2.33;;;16.80;90.20;;;;;;5098895;28;20536;-46
2022/05/27 05:50:07;;;;;;;3.53;2.33;;;16.80;90.00;;;;;;5098525;28;20562;-46
2022/05/27 05:52:33;;;;;;;2.63;2.33;;;16.90;89.80;;;;;;5097184;28;20425;-47
2022/05/27 05:54:59;;;;;;;3.70;2.87;;;17.00;90.00;;;;;;5098382;28;20818;-46
2022/05/27 05:57:25;;;;;;;3.13;2.83;;;17.00;89.60;;;;;;5061953;28;20213;-46
2022/05/27 05:59:50;;;;;;;3.53;2.70;;;17.00;89.70;;;;;;5096837;28;20527;-46
2022/05/27 06:02:16;;;;;;;3.83;2.27;;;17.00;89.70;;;;;;5078011;28;20194;-46
2022/05/27 06:04:41;;;;;;;3.13;2.57;;;17.10;89.70;;;;;;5095470;28;20190;-46
2022/05/27 06:07:07;;;;;;;3.57;2.60;;;17.10;89.60;;;;;;5096492;28;20177;-47
2022/05/27 06:09:33;;;;;;;6.23;2.43;;;17.20;90.00;;;;;;5097662;28;20501;-45
2022/05/27 06:12:01;;;;;;;2.30;2.10;;;17.20;89.90;;;;;;5097437;28;20556;-45
2022/05/27 06:14:26;;;;;;;3.30;2.40;;;17.20;90.00;;;;;;5097581;28;20185;-45
2022/05/27 06:16:52;;;;;;;2.80;2.30;;;17.20;90.10;;;;;;5099343;28;20658;-45
2022/05/27 06:19:18;;;;;;;2.73;2.27;;;17.10;90.20;;;;;;5099600;28;20197;-46
2022/05/27 06:21:44;;;;;;;3.60;2.33;;;17.10;90.30;;;;;;5098802;28;20181;-45
2022/05/27 06:24:10;;;;;;;3.23;2.73;;;17.10;90.20;;;;;;5098634;28;20194;-45
2022/05/27 06:26:38;;;;;;;3.10;2.80;;;17.20;90.10;;;;;;5095883;28;20443;-46
2022/05/27 06:34:33;;;;;;;3.27;2.47;;;17.40;90.10;;;;;;5096786;28;20913;-45
2022/05/27 06:37:27;;;;;;;4.13;2.53;;;17.50;89.90;;;;;;5097390;28;20406;-45
2022/05/27 06:39:53;;;;;;;3.10;2.33;;;17.50;89.50;;;;;;5091456;28;20516;-45
2022/05/27 06:42:19;;;;;;;4.27;2.40;;;17.50;89.50;;;;;;5095810;28;20434;-45
2022/05/27 06:44:45;;;;;;;3.87;2.60;;;17.60;89.40;;;;;;5096312;28;20434;-45
2022/05/27 06:47:12;;;;;;;3.30;2.87;;;17.70;90.00;;;;;;5077624;28;20412;-45
2022/05/27 06:49:38;;;;;;;4.10;3.10;;;17.70;89.20;;;;;;5094536;28;20454;-45
2022/05/27 06:52:06;;;;;;;4.03;2.70;;;17.70;89.00;;;;;;5095179;28;20821;-46
2022/05/27 06:54:34;;;;;;;3.50;3.00;;;17.80;88.80;;;;;;5079372;28;20882;-46
2022/05/27 06:56:59;;;;;;;4.20;2.57;;;17.80;88.70;;;;;;5096969;28;20737;-46
2022/05/27 06:59:25;;;;;;;3.90;2.50;;;17.60;88.90;;;;;;5059592;28;20489;-46
2022/05/27 07:01:51;;;;;;;3.10;2.80;;;17.60;89.30;;;;;;5094411;28;20177;-46
2022/05/27 07:04:19;;;;;;;4.57;2.60;;;17.50;89.50;;;;;;5096049;28;20181;-46
2022/05/27 07:06:46;;;;;;;4.17;3.20;;;17.50;89.90;;;;;;5080204;28;20178;-46
2022/05/27 07:09:15;;;;;;;3.80;2.80;;;17.50;90.00;;;;;;5061660;28;20696;-44
2022/05/27 07:11:43;;;;;;;2.80;2.47;;;17.40;90.10;;;;;;5076499;28;20468;-46
2022/05/27 07:14:09;;;;;;;3.43;2.77;;;17.40;90.20;;;;;;5095711;28;20434;-46
2022/05/27 07:16:35;;;;;;;4.57;3.17;;;17.50;90.20;;;;;;5078081;28;20430;-46
2022/05/27 07:19:01;;;;;;;3.10;2.80;;;17.50;90.20;;;;;;5095451;28;20178;-46
2022/05/27 07:21:27;;;;;;;3.30;2.73;;;17.50;90.30;;;;;;5097186;28;20889;-46
2022/05/27 07:23:53;;;;;;;4.47;3.00;;;17.50;90.30;;;;;;5095652;28;20276;-44
2022/05/27 07:26:20;;;;;;;3.73;2.90;;;17.60;90.20;;;;;;5094746;28;20177;-46
2022/05/27 07:28:46;;;;;;;3.40;3.10;;;17.60;90.30;;;;;;5076807;28;20546;-43
2022/05/27 07:31:12;;;;;;;3.90;2.90;;;17.60;90.20;;;;;;5094250;28;20543;-45
2022/05/27 07:33:38;;;;;;;3.50;3.17;;;17.60;90.30;;;;;;5061868;28;20301;-46
2022/05/27 07:36:05;;;;;;;3.70;2.87;;;17.70;90.30;;;;;;5096991;28;20282;-44
2022/05/27 07:38:30;;;;;;;6.60;2.93;;;17.90;90.10;;;;;;5079729;28;20180;-45
2022/05/27 07:40:56;;;;;;;5.97;3.70;;;18.10;90.00;;;;;;5097356;28;20708;-51
2022/05/27 07:43:23;;;;;;;4.10;2.93;;;18.30;89.10;;;;;;5064313;28;20313;-47
2022/05/27 07:45:49;;;;;;;2.40;2.20;;;18.60;87.80;;;;;;5080584;28;20447;-44
2022/05/27 07:48:15;;;;;;;3.60;2.50;;;18.90;86.10;;;;;;5095411;28;20203;-47
2022/05/27 07:50:41;;;;;;;3.90;2.60;;;19.10;84.80;;;;;;5077171;28;20306;-47
2022/05/27 07:53:07;;;;;;;4.40;2.97;;;19.10;84.20;;;;;;5092286;28;20279;-47
2022/05/27 07:55:33;;;;;;;4.00;2.80;;;19.10;83.50;;;;;;5076338;28;20494;-50
2022/05/27 07:57:59;;;;;;;4.60;2.90;;;18.90;83.20;;;;;;5092699;28;20552;-46
2022/05/27 08:00:31;;;;;;;5.73;2.73;;;18.80;84.10;;;;;;5092928;28;20419;-46
2022/05/27 08:02:56;;;;;;;5.30;2.77;;;18.80;84.60;;;;;;5090622;28;20436;-44
2022/05/27 08:05:25;;;;;;;3.00;2.47;;;18.90;84.70;;;;;;5073526;28;20501;-47
2022/05/27 08:07:52;;;;;;;4.90;2.70;;;18.90;84.80;;;;;;5076272;28;20338;-47
2022/05/27 08:10:24;;;;;;;4.70;2.90;;;18.90;85.00;;;;;;5094709;28;20502;-48
2022/05/27 08:12:49;;;;;;;3.73;2.50;;;19.10;84.80;;;;;;5075308;28;20555;-47
2022/05/27 08:15:15;;;;;;;3.70;2.70;;;19.00;83.80;;;;;;5093423;28;20410;-49
2022/05/27 08:17:41;;;;;;;2.83;2.20;;;18.90;83.40;;;;;;5093772;28;20249;-46
2022/05/27 08:20:09;;;;;;;4.63;2.90;;;18.90;83.40;;;;;;5093267;28;20635;-46
2022/05/27 08:22:36;;;;;;;3.33;2.50;;;18.90;83.40;;;;;;5093459;28;20541;-46
2022/05/27 08:25:01;;;;;;;3.47;2.47;;;18.90;83.50;;;;;;5094178;28;20421;-48
2022/05/27 08:27:27;;;;;;;2.90;2.70;;;19.00;82.90;;;;;;5094648;28;20417;-45
2022/05/27 08:29:53;;;;;;;3.80;2.70;;;19.10;82.50;;;;;;5093956;28;20471;-45
2022/05/27 08:32:19;;;;;;;3.63;2.37;;;19.50;82.20;;;;;;5094306;28;20279;-47
2022/05/27 08:40:26;;;;;;;4.13;2.50;;;20.70;77.10;;;;;;5094068;28;20856;-45
2022/05/27 08:43:13;;;;;;;3.07;2.40;;;20.70;76.50;;;;;;5093486;28;20580;-45
2022/05/27 08:45:59;;;;;;;5.20;2.80;;;20.60;76.50;;;;;;5094752;28;20450;-45
2022/05/27 08:48:27;;;;;;;3.17;2.10;;;20.40;76.40;;;;;;5075921;28;20429;-48
2022/05/27 08:51:00;;;;;;;4.63;2.60;;;20.30;76.40;;;;;;5075754;28;20547;-47
2022/05/27 08:53:33;;;;;;;3.73;3.20;;;20.30;76.40;;;;;;5074946;28;20434;-43
2022/05/27 09:01:51;;;;;;;6.80;3.00;;;19.80;76.80;;;;;;5093116;28;20509;-43
2022/05/27 09:04:33;;;;;;;3.93;2.47;;;19.80;77.20;;;;;;5093578;28;20479;-45
2022/05/27 09:07:08;;;;;;;3.50;2.93;;;19.80;77.20;;;;;;5074749;28;20725;-46
2022/05/27 09:09:36;;;;;;;2.73;2.53;;;19.80;76.40;;;;;;5094506;28;20556;-44
2022/05/27 09:12:10;;;;;;;2.87;2.10;;;20.00;76.60;;;;;;5095147;28;20413;-43
2022/05/27 09:14:37;;;;;;;4.37;2.83;;;20.20;76.40;;;;;;5094311;28;20425;-46
2022/05/27 09:17:06;;;;;;;2.50;2.20;;;20.60;75.70;;;;;;5077109;28;20976;-44
2022/05/27 09:19:50;;;;;;;2.77;2.30;;;21.30;74.40;;;;;;5077199;28;20420;-43
2022/05/27 09:22:34;;;;;;;3.57;2.27;;;21.70;72.50;;;;;;5095520;28;20418;-44
2022/05/27 09:25:21;;;;;;;4.03;2.53;;;22.40;70.20;;;;;;5095029;28;20504;-43
2022/05/27 09:27:55;;;;;;;3.90;2.50;;;23.00;68.10;;;;;;5095382;28;20414;-46
2022/05/27 09:30:20;;;;;;;3.00;2.03;;;23.50;65.60;;;;;;5094103;28;20607;-45
2022/05/27 09:32:52;;;;;;;3.30;2.57;;;24.70;63.40;;;;;;5077079;28;20493;-45
2022/05/27 09:35:25;;;;;;;2.40;2.20;;;25.00;59.10;;;;;;5093778;28;20229;-46
2022/05/27 09:37:54;;;;;;;2.90;2.10;;;25.10;58.30;;;;;;5095132;28;20527;-47
2022/05/27 09:40:34;;;;;;;3.93;1.83;;;25.30;57.70;;;;;;5094823;28;20517;-45
2022/05/27 09:43:41;;;;;;;2.93;2.20;;;25.60;56.40;;;;;;5076530;28;20430;-47
2022/05/27 09:46:13;;;;;;;2.57;1.70;;;25.80;54.90;;;;;;5081049;28;20711;-46
2022/05/27 09:48:39;;;;;;;2.13;1.93;;;25.40;54.50;;;;;;5076215;28;20577;-45
2022/05/27 09:51:07;;;;;;;2.20;1.50;;;25.20;54.00;;;;;;5075536;28;20579;-47
2022/05/27 09:53:42;;;;;;;2.13;1.50;;;24.90;54.00;;;;;;5093243;28;20552;-48
2022/05/27 09:56:11;;;;;;;1.57;1.40;;;24.60;54.30;;;;;;5074454;28;20428;-46
2022/05/27 09:58:45;;;;;;;1.93;1.50;;;24.50;54.40;;;;;;5092889;28;20457;-47
2022/05/27 10:01:28;;;;;;;1.80;1.70;;;24.50;54.10;;;;;;5073145;28;20801;-47
2022/05/27 10:04:06;;;;;;;3.00;1.70;;;24.30;53.40;;;;;;5092090;28;20428;-46
2022/05/27 10:06:34;;;;;;;2.40;1.93;;;23.90;53.40;;;;;;5097669;28;20486;-46
2022/05/27 10:09:03;;;;;;;4.20;2.03;;;23.70;53.40;;;;;;5094993;28;20423;-46
2022/05/27 10:11:30;;;;;;;1.77;1.30;;;23.70;53.20;;;;;;5078692;28;20434;-48
2022/05/27 10:14:10;;;;;;;2.10;1.90;;;24.60;52.90;;;;;;5097826;28;20436;-48
2022/05/27 10:16:40;;;;;;;2.47;1.70;;;25.60;51.70;;;;;;5097963;28;20407;-47
2022/05/27 10:19:23;;;;;;;3.90;2.27;;;26.50;50.20;;;;;;5060103;28;20571;-47
2022/05/27 10:22:05;;;;;;;2.80;2.20;;;26.90;48.70;;;;;;5078013;28;20697;-46
2022/05/27 10:24:34;;;;;;;3.50;2.43;;;26.90;48.90;;;;;;5077412;28;20501;-45
2022/05/27 10:27:15;;;;;;;2.57;2.07;;;27.40;48.50;;;;;;5095822;28;20419;-46
2022/05/27 10:29:55;;;;;;;2.03;1.83;;;28.40;46.70;;;;;;5094401;28;20473;-44
2022/05/27 10:32:35;;;;;;;2.50;1.80;;;29.20;45.10;;;;;;5096781;28;20637;-45
2022/05/27 10:35:32;;;;;;;2.27;1.57;;;30.40;43.50;;;;;;5096747;28;20552;-46
2022/05/27 10:38:13;;;;;;;1.93;1.50;;;31.20;41.40;;;;;;5077727;28;20463;-50
2022/05/27 10:40:45;;;;;;;2.57;1.70;;;30.20;40.50;;;;;;5078877;28;20776;-46
2022/05/27 10:43:19;;;;;;;2.50;1.73;;;29.50;41.70;;;;;;5096483;28;20449;-47
2022/05/27 10:45:48;;;;;;;1.90;1.80;;;28.90;42.00;;;;;;5095585;28;20421;-44
2022/05/27 10:48:16;;;;;;;2.10;1.73;;;29.60;41.20;;;;;;5097013;28;20519;-45
2022/05/27 10:51:19;;;;;;;2.23;1.73;;;30.80;40.40;;;;;;5097803;28;20466;-45
2022/05/27 10:54:22;;;;;;;2.10;1.60;;;31.40;38.60;;;;;;5096752;28;20418;-46
2022/05/27 11:03:10;;;;;;;2.53;1.63;;;29.00;39.20;;;;;;5094646;28;20414;-48
2022/05/27 11:06:01;;;;;;;2.43;1.90;;;28.70;40.10;;;;;;5096861;28;20449;-46
2022/05/27 11:08:30;;;;;;;1.80;1.53;;;28.60;40.40;;;;;;5078120;28;20435;-49
2022/05/27 11:11:05;;;;;;;3.07;1.90;;;28.30;40.70;;;;;;5078878;28;20472;-45
2022/05/27 11:16:52;;;;;;;2.13;1.70;;;27.00;42.50;;;;;;5076155;28;20468;-45
2022/05/27 11:19:26;;;;;;;3.43;1.90;;;26.20;43.40;;;;;;5077706;28;20438;-42
2022/05/27 11:22:14;;;;;;;2.13;1.80;;;25.70;43.90;;;;;;5075014;28;20443;-46
2022/05/27 11:25:19;;;;;;;6.27;1.80;;;25.30;44.20;;;;;;5076700;28;20462;-47
2022/05/27 11:28:16;;;;;;;3.73;1.63;;;25.00;45.10;;;;;;5076300;28;20497;-46
2022/05/27 11:31:25;;;;;;;5.33;1.90;;;24.90;45.60;;;;;;5076782;28;20897;-44
2022/05/27 11:34:11;;;;;;;2.80;1.67;;;24.70;46.30;;;;;;5039253;28;20508;-45
2022/05/27 11:36:46;;;;;;;2.83;1.70;;;24.40;46.80;;;;;;5058371;28;20454;-46
2022/05/27 11:39:35;;;;;;;2.03;1.73;;;24.10;47.00;;;;;;5057461;28;20830;-48
2022/05/27 11:42:55;;;;;;;1.77;1.43;;;23.90;47.20;;;;;;5058413;28;20426;-43
2022/05/27 11:45:24;;;;;;;1.93;1.73;;;23.80;47.30;;;;;;5069551;28;20441;-48
2022/05/27 11:48:08;;;;;;;3.07;1.70;;;23.50;47.70;;;;;;5097302;28;20467;-47
2022/05/27 11:50:53;;;;;;;2.03;1.47;;;23.30;48.00;;;;;;5061846;28;20460;-47
2022/05/27 11:53:26;;;;;;;2.17;1.80;;;22.90;48.60;;;;;;5080198;28;20536;-50
2022/05/27 11:56:07;;;;;;;2.77;1.70;;;22.70;48.90;;;;;;5079079;28;20401;-46
2022/05/27 11:58:45;;;;;;;2.30;1.30;;;22.50;49.30;;;;;;5097430;28;20428;-46
2022/05/27 12:01:29;;;;;;;7.03;2.07;;;22.60;49.70;;;;;;5096985;28;20837;-46
2022/05/27 12:04:18;;;;;;;2.43;1.37;;;22.70;49.70;;;;;;5098521;28;20496;-47
2022/05/27 12:06:50;;;;;;;2.00;1.70;;;22.80;49.70;;;;;;5096351;28;20415;-47
2022/05/27 12:09:59;;;;;;;2.27;1.70;;;23.00;49.90;;;;;;5077748;28;20486;-47
2022/05/27 12:12:26;;;;;;;2.03;1.40;;;23.00;49.90;;;;;;4994879;28;20435;-48
2022/05/27 12:15:06;;;;;;;2.30;1.70;;;23.70;49.80;;;;;;5063799;28;20557;-48
2022/05/27 12:17:42;;;;;;;2.00;1.70;;;24.60;49.00;;;;;;5096577;28;20452;-52
2022/05/27 12:20:09;;;;;;;3.90;1.80;;;26.20;47.50;;;;;;5077746;28;20708;-48
2022/05/27 12:22:35;;;;;;;2.33;2.10;;;28.10;45.20;;;;;;5095953;28;20846;-45
2022/05/27 12:25:14;;;;;;;2.27;1.53;;;29.20;43.20;;;;;;5094762;28;20511;-47
2022/05/27 12:27:40;;;;;;;2.13;1.80;;;29.60;41.90;;;;;;5079489;28;21120;-45
2022/05/27 12:30:11;;;;;;;2.33;1.60;;;29.40;41.80;;;;;;5078896;28;20468;-45
2022/05/27 12:32:40;;;;;;;1.90;1.40;;;29.30;42.10;;;;;;5063703;28;20180;-46
2022/05/27 12:35:26;;;;;;;2.20;1.33;;;29.10;42.10;;;;;;5077010;28;20576;-48
2022/05/27 12:38:10;;;;;;;1.90;1.70;;;29.00;42.10;;;;;;5095685;28;20874;-46
2022/05/27 12:40:50;;;;;;;2.77;1.80;;;29.00;42.20;;;;;;5095974;28;20490;-48
2022/05/27 12:43:16;;;;;;;4.80;2.00;;;29.50;41.80;;;;;;5076674;28;20413;-49
2022/05/27 12:46:13;;;;;;;1.80;1.40;;;29.70;41.30;;;;;;5096887;28;20820;-46
2022/05/27 12:48:44;;;;;;;2.23;1.60;;;29.60;41.20;;;;;;5078231;28;20833;-43
2022/05/27 12:51:16;;;;;;;2.27;1.67;;;29.00;41.60;;;;;;5078174;28;20535;-45
2022/05/27 12:53:51;;;;;;;2.93;1.33;;;28.20;42.00;;;;;;5095109;28;20604;-45
2022/05/27 13:02:18;;;;;;;1.90;1.50;;;26.00;44.80;;;;;;5095695;28;20401;-46
2022/05/27 13:04:45;;;;;;;1.80;1.60;;;25.50;45.40;;;;;;5096548;28;20418;-47
2022/05/27 13:07:12;;;;;;;2.27;1.87;;;25.10;46.10;;;;;;5096238;28;20754;-45
2022/05/27 13:09:43;;;;;;;2.17;1.70;;;24.70;47.00;;;;;;5077793;28;20471;-43
2022/05/27 13:12:12;;;;;;;2.40;1.70;;;24.50;46.90;;;;;;5096505;28;20500;-44
2022/05/27 13:14:49;;;;;;;2.53;1.80;;;24.20;47.40;;;;;;5091826;28;20429;-46
2022/05/27 13:17:30;;;;;;;2.13;1.93;;;24.00;47.80;;;;;;5095878;28;20846;-49
2022/05/27 13:20:58;;;;;;;2.20;2.00;;;24.10;48.10;;;;;;5078892;28;20433;-45
2022/05/27 13:23:26;;;;;;;3.50;1.80;;;24.00;48.30;;;;;;5003858;28;20441;-45
2022/05/27 13:26:13;;;;;;;2.27;1.60;;;24.10;48.50;;;;;;5095505;28;20417;-48
2022/05/27 13:28:47;;;;;;;3.10;1.87;;;24.10;48.10;;;;;;5078088;28;20421;-45
2022/05/27 13:31:14;;;;;;;1.70;1.50;;;24.20;48.40;;;;;;5077973;28;20502;-49
2022/05/27 13:34:02;;;;;;;2.27;1.93;;;24.20;48.70;;;;;;5077575;28;20482;-46
2022/05/27 13:36:33;;;;;;;2.10;1.60;;;24.00;49.00;;;;;;5095275;28;20471;-45
2022/05/27 13:39:04;;;;;;;2.13;1.87;;;24.00;49.20;;;;;;5077191;28;20519;-46
2022/05/27 13:41:38;;;;;;;2.13;1.70;;;23.90;49.30;;;;;;5079995;28;20990;-47
2022/05/27 13:44:04;;;;;;;2.20;1.80;;;23.80;49.40;;;;;;5097570;28;20429;-47
2022/05/27 13:46:32;;;;;;;2.03;1.73;;;23.90;49.60;;;;;;5098536;28;20468;-49
2022/05/27 13:49:01;;;;;;;3.70;2.00;;;24.00;49.60;;;;;;5080293;28;20193;-47
2022/05/27 13:51:27;;;;;;;2.73;1.83;;;24.10;49.20;;;;;;5080232;28;20467;-48
2022/05/27 13:53:54;;;;;;;1.80;1.70;;;23.80;49.40;;;;;;5098629;28;20427;-44
2022/05/27 13:56:25;;;;;;;1.87;1.60;;;23.60;49.70;;;;;;5081700;28;20407;-47
2022/05/27 13:58:57;;;;;;;1.80;1.50;;;23.30;50.10;;;;;;5080813;28;20433;-46
2022/05/27 14:01:33;;;;;;;1.80;1.20;;;23.10;50.40;;;;;;5098859;28;20417;-44